»·PEaware :: N8573X KBUR-KBFL

N8573X :: KBUR-KBFL

FLIGHT INFORMATION

Flight Status: Arrived
Operator: Privately registered:
United States
More flights under this callsign
Pilot: Tommy H. (35970)
Aircraft: PIPER PA-28 CHEROKEE ARCHER
(P28A)
More flights by this aircraft type
Origin: KBUR Bob Hope-Burbank
United States
Destination: KBFL Meadows
United States
More flights between these airports :: More routes between these airports
Route:
File this flight plan on PilotEdge
Remarks:
Altitude:
(Current/Filed)
8,500ft
Speed:
(Current/Filed)
0kts
Departed: 15-Nov-21 06:44 PM
Arrived: 15-Nov-21 07:50 PM
Distance/Time
Traveled:
82nm/1:06
Distance/Time
To Go:
Arrived

Flight Plot

Page will automatically refresh every two minutes.

Flight plan parsing failed; only flown route is shown


Map Options




Map Legend


Flown Route
Filed Route
Departure Airport
Arrival Airport
Navaid (VOR, NDB)
Fix

Horizontal Profiles

Position Reports

Time Latitude Longitude Heading Altitude Ground
Speed
15-Nov-21 18:32 34.200352 -118.363574 230 734ft 0kts
15-Nov-21 18:33 34.200352 -118.363574 230 734ft 0kts
15-Nov-21 18:34 34.200224 -118.363680 212 733ft 6kts
15-Nov-21 18:35 34.199229 -118.364573 204 730ft 12kts
15-Nov-21 18:36 34.199104 -118.366653 271 731ft 10kts
15-Nov-21 18:37 34.199075 -118.368868 240 733ft 11kts
15-Nov-21 18:38 34.198761 -118.368977 94 732ft 0kts
15-Nov-21 18:39 34.198761 -118.368978 94 732ft 0kts
15-Nov-21 18:40 34.198759 -118.368971 109 732ft 0kts
15-Nov-21 18:41 34.198713 -118.368964 190 732ft 0kts
15-Nov-21 18:42 34.197908 -118.368919 86 730ft 5kts
15-Nov-21 18:43 34.197418 -118.357084 93 1053ft 76kts
15-Nov-21 18:44 34.199729 -118.341155 55 1737ft 74kts
15-Nov-21 18:45 34.213025 -118.335968 357 2343ft 81kts
15-Nov-21 18:46 34.227034 -118.342529 327 2956ft 81kts
15-Nov-21 18:47 34.239861 -118.351912 324 3528ft 82kts
15-Nov-21 18:48 34.253382 -118.360545 334 4076ft 83kts
15-Nov-21 18:49 34.267628 -118.368658 333 4607ft 84kts
15-Nov-21 18:50 34.282314 -118.376792 334 5121ft 85kts
15-Nov-21 18:51 34.298455 -118.386322 333 5657ft 86kts
15-Nov-21 18:52 34.315315 -118.395674 334 6247ft 85kts
15-Nov-21 18:53 34.331491 -118.405216 329 6838ft 87kts
15-Nov-21 18:54 34.347224 -118.414979 333 7388ft 88kts
15-Nov-21 18:55 34.363215 -118.423813 334 7905ft 89kts
15-Nov-21 18:56 34.379622 -118.431562 340 8385ft 91kts
15-Nov-21 18:57 34.398734 -118.441289 332 8433ft 112kts
15-Nov-21 18:58 34.419330 -118.453207 334 8413ft 115kts
15-Nov-21 18:59 34.440159 -118.465390 335 8428ft 115kts
15-Nov-21 19:00 34.461588 -118.478772 327 8436ft 115kts
15-Nov-21 19:01 34.483632 -118.494736 331 8425ft 116kts
15-Nov-21 19:02 34.505067 -118.508282 333 8417ft 115kts
15-Nov-21 19:03 34.527219 -118.521637 333 8403ft 116kts
15-Nov-21 19:04 34.549592 -118.534897 333 8390ft 116kts
15-Nov-21 19:05 34.572065 -118.548139 334 8378ft 116kts
15-Nov-21 19:06 34.594233 -118.561177 334 8365ft 116kts
15-Nov-21 19:07 34.616913 -118.574515 334 8353ft 116kts
15-Nov-21 19:08 34.639861 -118.588014 334 8341ft 116kts
15-Nov-21 19:09 34.662881 -118.601563 334 8328ft 116kts
15-Nov-21 19:10 34.685830 -118.615076 334 8316ft 116kts
15-Nov-21 19:11 34.708171 -118.628241 334 8304ft 116kts
15-Nov-21 19:12 34.730401 -118.641350 334 8315ft 115kts
15-Nov-21 19:13 34.752121 -118.654169 333 8347ft 114kts
15-Nov-21 19:14 34.779356 -118.670251 333 8379ft 114kts
15-Nov-21 19:15 34.801004 -118.683038 333 8404ft 114kts
15-Nov-21 19:16 34.822731 -118.695876 333 8408ft 115kts
15-Nov-21 19:17 34.844355 -118.708663 333 8409ft 115kts
15-Nov-21 19:18 34.865955 -118.721443 333 8411ft 115kts
15-Nov-21 19:19 34.887656 -118.734292 333 8413ft 115kts
15-Nov-21 19:20 34.909506 -118.747237 333 8414ft 115kts
15-Nov-21 19:21 34.931407 -118.760220 333 8414ft 115kts
15-Nov-21 19:22 34.952902 -118.772970 333 8413ft 115kts
15-Nov-21 19:23 34.974303 -118.785671 333 8412ft 115kts
15-Nov-21 19:24 34.995730 -118.798251 334 8410ft 115kts
15-Nov-21 19:25 35.017344 -118.810438 334 8408ft 115kts
15-Nov-21 19:26 35.038516 -118.822786 333 8405ft 115kts
15-Nov-21 19:27 35.059940 -118.835492 333 8402ft 115kts
15-Nov-21 19:28 35.081504 -118.848314 333 8398ft 115kts
15-Nov-21 19:29 35.102683 -118.860917 333 8394ft 115kts
15-Nov-21 19:30 35.123718 -118.873442 333 8390ft 115kts
15-Nov-21 19:31 35.143667 -118.885327 333 8385ft 115kts
15-Nov-21 19:32 35.163250 -118.897016 332 8381ft 115kts
15-Nov-21 19:33 35.183248 -118.905268 352 7980ft 113kts
15-Nov-21 19:34 35.204699 -118.907723 356 7385ft 116kts
15-Nov-21 19:35 35.226383 -118.907640 3 6747ft 113kts
15-Nov-21 19:36 35.248416 -118.905323 6 6063ft 113kts
15-Nov-21 19:37 35.271447 -118.903241 4 5378ft 112kts
15-Nov-21 19:38 35.293811 -118.909509 340 4707ft 111kts
15-Nov-21 19:39 35.313848 -118.921095 328 4098ft 110kts
15-Nov-21 19:41 35.331629 -118.935887 324 3524ft 109kts
15-Nov-21 19:42 35.341098 -118.955594 317 3116ft 103kts
15-Nov-21 19:43 35.357752 -118.967776 326 2609ft 104kts
15-Nov-21 19:44 35.372980 -118.982374 319 2106ft 102kts
15-Nov-21 19:45 35.386765 -118.998317 315 1727ft 103kts
15-Nov-21 19:46 35.399529 -119.013952 312 1343ft 92kts
15-Nov-21 19:47 35.410024 -119.027652 315 1147ft 76kts
15-Nov-21 19:48 35.419837 -119.039340 314 861ft 70kts
15-Nov-21 19:49 35.429280 -119.050657 314 611ft 68kts
15-Nov-21 19:50 35.435954 -119.058515 10 492ft 13kts
15-Nov-21 19:51 35.436294 -119.058171 44 494ft 0kts
15-Nov-21 19:52 35.436294 -119.058171 44 494ft 0kts

Navigation Log

Ident Type
Flight plan parsing failed, navigation log unavailable